Lee, Maine
Current Conditions -  °F | °C
As of 4:53 AM on Monday 26 Jan 2015 (Local Time) from KMLT Reporting Station
Clear Clear  
Wind Chill: -13°   Ceiling: Unl
Heat Index:   Visibility: 10mi
Dew Point: -8°   Wind: 9mph
Humidity: 63%   Direction: 300°WNW
Pressure: 30.07"   Gusts: 17mph
Location:  45.36°N, 68.29°W
Report Text: KMLT 260953Z AUTO 30008G15KT 10SM CLR M17/M22 A3007 RMK AO2 SLP199 T11671222
Loading
Personal Weather Stations






























Interactive Weather Map New forecast layout! Learn more

10-Day Weather Forecast

Advertisements
Track Severe Weather on mobile